KBXA/BXA METAR and TAF weather

Enter ICAO airport designator
Station Type Date Time Source
KBXA METAR 2018/01/16 08:55 UTC NOAA

KBXA 160855Z AUTO 00000KT 10SM CLR 01/00 A3038 RMK AO2 T00101002


Station Type Date Time Source
KBXA Decoded METAR 2018/01/16 08:55 UTC NOAA

Bogalusa, George R Carr Memorial Air Field, LA, United States (KBXA) 30-48-49N 089-51-53W
Jan 16, 2018 - 03:55 AM EST / 2018.01.16 0855 UTC
Wind: Calm:0
Visibility: 10 mile(s):0
Sky conditions: clear
Temperature: 33.8 F (1.0 C)
Dew Point: 31.6 F (-0.2 C)
Relative Humidity: 91%
Pressure (altimeter): 30.38 in. Hg (1028 hPa)
ob: KBXA 160855Z AUTO 00000KT 10SM CLR 01/00 A3038 RMK AO2 T00101002
cycle: 9

Station Type Date Time Source
KBXA TAF UTC NOAA

Error!


Example: see airport list